Hovedside
METAR-TAF:

METAR-TAF

Lufthavner :

Kärdla lufthavn

Kärdla, Estland

breddegrad: 58-59N, lengdegrad: 022-49E, høyde over havet: 5 m

Gjeldene værobservasjon

Denne rapporten ble laget for 2 timer og 46 minutter siden, klokken 14:50 UTC
Vind 3 kt fra Sør, skiftende mellom Sør-sørøst og Sørvest
Temperatur 12°C
Luftfuktighet 100%
Trykk 1011 hPa
Sikt: 6000 m
Overskyet i en høyde av 200 ft

METAR: EEKA 181450Z 19003KT 160V230 6000 OVC002 12/12 Q1011

Tid: 20:36 (17:36 UTC)

Varsel

Denne rapporten ble laget for 5 timer og 36 minutter siden, klokken 12:00 UTC
Varsel gyldig fra 18. klokken 13 UTC til 18. klokken 19 UTC
Vind 6 kt fra Sør-sørvest
Sikt: 3000 m
Brutte skyer i en høyde av 300 ft
Brutte skyer i en høyde av 1000 ft
dis
Midlertidig
fra 18. klokken 13 UTC til 18. klokken 19 UTC
Sikt: 0700 m
i en høyde av 200 ft
duskregn, tåke

TAF: EEKA 181200Z 1813/1819 21006KT 3000 BR BKN003 BKN010 TEMPO 1813/1819 0700 DZ FG VV002

Værobservasjoner og værvarsel for over 4000 flyplasser (METAR- og TAF-rapporter).

Tilgjengelige stasjoner er representert av de røde og gule prikkene på kartet.

Hold musepekeren over prikken for å se navnet på stasjonen.

Klikk så for å se værobservasjoner og -varsler.

For å forandre kartet kan du klikke på den grønne knappen med svart kryss for å zoome inn, på den grønne knappen med strek for å zoome ut, eller på de grønne pilene for å se tilstøtende kart.


METAR-TAF: